Time;durP1;ratioP1;P1;durP2;ratioP2;P2;SDS_P1;SDS_P2;PMS_P1;PMS_P2;Temp;Humidity;BMP_temperature;BMP_pressure;BME280_temperature;BME280_humidity;BME280_pressure;Samples;Min_cycle;Max_cycle;Signal;HPM_P1;HPM_P2
2021/06/11 00:03:56;;;;;;;6.90;6.20;;;;;;;18.89;64.28;98266.22;8388353;28;20203;-64
2021/06/11 00:07:58;;;;;;;7.83;5.80;;;;;;;18.88;64.15;98270.59;8382024;28;20240;-64
2021/06/11 00:12:00;;;;;;;6.53;6.03;;;;;;;18.85;64.15;98262.09;8381992;28;20206;-64
2021/06/11 00:16:04;;;;;;;14.93;5.80;;;;;;;18.68;64.68;98277.28;8382018;28;20215;-64
2021/06/11 00:20:08;;;;;;;6.57;5.73;;;;;;;18.73;64.01;98271.69;8381888;28;20230;-64
2021/06/11 00:24:10;;;;;;;7.70;6.07;;;;;;;18.71;64.78;98278.84;8381732;28;20200;-64
2021/06/11 00:28:13;;;;;;;8.03;6.00;;;;;;;18.66;64.35;98280.97;8381600;28;20223;-64
2021/06/11 00:32:16;;;;;;;6.20;5.70;;;;;;;18.55;64.79;98266.84;8381701;28;20461;-64
2021/06/11 00:36:19;;;;;;;5.80;5.30;;;;;;;18.71;64.38;98265.72;8381427;28;20283;-64
2021/06/11 00:40:21;;;;;;;5.47;5.07;;;;;;;18.66;64.35;98273.09;8381717;28;20232;-64
2021/06/11 00:44:23;;;;;;;7.63;6.23;;;;;;;18.63;64.11;98258.41;8381291;28;20226;-64
2021/06/11 00:48:27;;;;;;;7.93;6.37;;;;;;;18.71;63.56;98265.72;8381051;28;20223;-64
2021/06/11 00:52:31;;;;;;;7.50;6.90;;;;;;;18.65;64.22;98261.75;8381656;28;20513;-64
2021/06/11 00:56:34;;;;;;;51.20;8.37;;;;;;;18.50;64.30;98261.06;8381315;28;20211;-64
2021/06/11 01:00:37;;;;;;;14.03;7.53;;;;;;;18.49;64.71;98262.03;8391686;28;20272;-64
2021/06/11 01:04:41;;;;;;;11.70;8.37;;;;;;;18.54;64.81;98262.56;8414746;28;20487;-64
2021/06/11 01:08:43;;;;;;;49.60;8.97;;;;;;;18.42;65.91;98262.59;8414719;28;20459;-64
2021/06/11 01:12:46;;;;;;;79.17;10.07;;;;;;;18.36;66.12;98263.88;8414247;28;20210;-65
2021/06/11 01:16:48;;;;;;;7.33;6.70;;;;;;;18.36;66.10;98256.00;8414406;28;20400;-64
2021/06/11 01:20:52;;;;;;;7.50;5.67;;;;;;;18.40;65.68;98254.00;8414317;28;20237;-64
2021/06/11 01:25:00;;;;;;;7.00;6.40;;;;;;;18.44;65.27;98245.78;8413995;28;20205;-64
2021/06/11 01:29:06;;;;;;;7.63;6.80;;;;;;;18.60;64.99;98247.28;8414080;28;20402;-64
2021/06/11 01:33:11;;;;;;;6.00;5.50;;;;;;;18.47;65.09;98242.97;8413867;28;20253;-64
2021/06/11 01:37:17;;;;;;;7.97;7.17;;;;;;;18.43;64.91;98243.28;8414100;28;20203;-64
2021/06/11 01:41:20;;;;;;;6.37;5.70;;;;;;;18.51;65.02;98246.19;8414151;28;20493;-64
2021/06/11 01:45:24;;;;;;;11.90;6.87;;;;;;;18.42;64.68;98245.06;8413558;28;20199;-64
2021/06/11 01:49:27;;;;;;;8.00;6.40;;;;;;;18.49;64.73;98250.72;8413989;28;20234;-64
2021/06/11 01:53:30;;;;;;;6.70;6.10;;;;;;;18.40;65.13;98244.34;8413378;28;20206;-64
2021/06/11 01:57:33;;;;;;;6.77;6.00;;;;;;;18.46;65.15;98246.50;8414567;28;20199;-64
2021/06/11 02:01:37;;;;;;;56.87;9.33;;;;;;;18.35;65.78;98244.69;8419428;28;20203;-64
2021/06/11 02:05:40;;;;;;;9.17;6.70;;;;;;;18.33;66.07;98254.44;8419564;28;20219;-64
2021/06/11 02:09:43;;;;;;;14.97;7.27;;;;;;;18.33;66.01;98258.84;8419038;28;20243;-64
2021/06/11 02:13:47;;;;;;;18.10;6.67;;;;;;;18.32;65.48;98263.25;8419244;28;20305;-64
2021/06/11 02:17:51;;;;;;;13.70;6.80;;;;;;;18.35;65.71;98260.41;8418650;28;20206;-64
2021/06/11 02:21:55;;;;;;;15.77;6.47;;;;;;;18.22;66.12;98258.75;8418814;28;20305;-64
2021/06/11 02:25:58;;;;;;;69.33;7.37;;;;;;;18.16;66.16;98249.53;8418834;28;20206;-64
2021/06/11 02:30:00;;;;;;;7.47;5.30;;;;;;;18.32;66.05;98257.16;8418409;28;20230;-64
2021/06/11 02:34:04;;;;;;;34.83;6.90;;;;;;;18.19;66.30;98256.38;8418270;28;20221;-64
2021/06/11 02:38:06;;;;;;;20.40;6.93;;;;;;;18.06;66.64;98256.38;8418888;28;20203;-64
2021/06/11 02:42:09;;;;;;;8.33;5.70;;;;;;;18.23;66.21;98252.56;8418737;28;20199;-64
2021/06/11 02:46:14;;;;;;;12.70;7.43;;;;;;;18.22;66.37;98258.75;8418242;28;20209;-64
2021/06/11 02:50:21;;;;;;;14.17;8.70;;;;;;;18.11;67.00;98256.91;8418121;28;20234;-65
2021/06/11 02:54:26;;;;;;;24.83;8.80;;;;;;;18.16;66.58;98258.25;8417885;28;20198;-64
2021/06/11 02:58:34;;;;;;;22.40;8.80;;;;;;;18.10;66.79;98256.06;8417734;28;20207;-64
2021/06/11 03:02:41;;;;;;;16.00;7.97;;;;;;;18.17;67.06;98253.84;8417830;28;20206;-64
2021/06/11 03:06:49;;;;;;;13.70;8.07;;;;;;;18.21;66.59;98259.72;8417720;28;20329;-64
2021/06/11 03:10:56;;;;;;;50.63;8.93;;;;;;;18.11;66.64;98259.53;8416941;28;20245;-64
2021/06/11 03:14:59;;;;;;;55.40;9.80;;;;;;;18.12;66.95;98253.31;8417264;28;20270;-64
2021/06/11 03:19:04;;;;;;;9.13;7.63;;;;;;;18.14;66.96;98259.31;8417092;28;20401;-64
2021/06/11 03:23:12;;;;;;;13.83;8.33;;;;;;;18.00;67.44;98260.28;8416813;28;20218;-64
2021/06/11 03:27:19;;;;;;;16.97;8.40;;;;;;;18.09;67.11;98251.78;8416831;28;20222;-64
2021/06/11 03:31:23;;;;;;;36.83;9.17;;;;;;;17.92;68.21;98249.50;8416543;28;20249;-64
2021/06/11 03:35:29;;;;;;;36.13;10.77;;;;;;;17.94;68.76;98258.09;8416760;28;20316;-64
2021/06/11 03:39:36;;;;;;;12.03;10.80;;;;;;;18.03;68.42;98254.84;8416577;28;20203;-64
2021/06/11 03:43:38;;;;;;;30.17;12.63;;;;;;;17.86;68.74;98255.16;8416276;28;20364;-64
2021/06/11 03:47:40;;;;;;;11.70;10.47;;;;;;;18.06;68.36;98257.22;8416281;28;20199;-64
2021/06/11 03:51:43;;;;;;;19.17;11.70;;;;;;;18.21;67.97;98255.31;8415824;28;20230;-64
2021/06/11 03:55:49;;;;;;;65.60;14.33;;;;;;;17.81;68.46;98265.94;8416161;28;20199;-64
2021/06/11 03:59:53;;;;;;;21.60;12.77;;;;;;;18.00;67.94;98262.91;8415678;28;20203;-64
2021/06/11 04:03:55;;;;;;;14.73;13.30;;;;;;;17.87;68.38;98272.56;8415584;28;20513;-64
2021/06/11 04:07:58;;;;;;;19.47;11.80;;;;;;;17.83;68.18;98268.44;8415474;28;20229;-64
2021/06/11 04:12:06;;;;;;;22.17;11.23;;;;;;;18.03;67.87;98267.06;8415813;28;20199;-64
2021/06/11 04:16:14;;;;;;;13.83;12.43;;;;;;;17.87;68.54;98272.56;8415700;28;20226;-64
2021/06/11 04:20:23;;;;;;;25.07;11.63;;;;;;;18.00;67.78;98267.31;8415063;28;20230;-64
2021/06/11 04:24:30;;;;;;;18.47;10.50;;;;;;;18.00;67.81;98276.00;8415702;28;20505;-64
2021/06/11 04:28:34;;;;;;;11.97;10.77;;;;;;;18.11;67.70;98270.84;8415118;28;20223;-64
2021/06/11 04:32:36;;;;;;;13.27;12.07;;;;;;;18.15;67.90;98277.53;8415286;28;20551;-64
2021/06/11 04:36:39;;;;;;;12.20;11.10;;;;;;;18.20;67.64;98273.75;8415141;28;20206;-64
2021/06/11 04:40:41;;;;;;;23.00;12.10;;;;;;;18.19;67.26;98277.34;8415368;28;20393;-64
2021/06/11 04:44:46;;;;;;;12.43;11.13;;;;;;;18.17;67.29;98285.31;8414971;28;20199;-64
2021/06/11 04:48:48;;;;;;;18.40;11.40;;;;;;;18.19;66.87;98287.81;8414754;28;20231;-64
2021/06/11 04:52:50;;;;;;;16.27;11.00;;;;;;;18.24;67.19;98285.69;8396745;28;20195;-64
2021/06/11 04:56:53;;;;;;;19.87;10.83;;;;;;;18.21;67.03;98293.78;8381675;28;20356;-64
2021/06/11 05:00:56;;;;;;;18.27;11.33;;;;;;;18.24;67.11;98280.44;8394285;28;20218;-64
2021/06/11 05:04:59;;;;;;;13.33;10.67;;;;;;;18.28;67.32;98295.03;8415184;28;20222;-64
2021/06/11 05:09:01;;;;;;;19.10;11.83;;;;;;;18.24;67.51;98301.41;8414600;28;20253;-64
2021/06/11 05:13:03;;;;;;;17.80;11.47;;;;;;;18.34;67.16;98291.97;8414448;28;20210;-64
2021/06/11 05:17:07;;;;;;;17.20;12.43;;;;;;;18.31;67.12;98293.00;8414679;28;20199;-64
2021/06/11 05:21:09;;;;;;;23.43;12.73;;;;;;;18.24;67.51;98286.56;8414647;28;20203;-64
2021/06/11 05:25:13;;;;;;;16.63;12.90;;;;;;;18.31;67.35;98293.00;8414373;28;20199;-64
2021/06/11 05:29:15;;;;;;;15.70;12.27;;;;;;;18.36;66.89;98290.91;8381035;28;20224;-64
2021/06/11 05:33:19;;;;;;;13.40;12.27;;;;;;;18.43;66.82;98298.34;8384434;28;20200;-64
2021/06/11 05:37:21;;;;;;;17.00;12.27;;;;;;;18.42;66.89;98296.69;8387013;28;20215;-64
2021/06/11 05:41:24;;;;;;;48.70;14.93;;;;;;;18.15;68.34;98302.91;8387513;28;20203;-64
2021/06/11 05:45:26;;;;;;;15.47;13.83;;;;;;;18.26;68.14;98303.00;8386810;28;20199;-64
2021/06/11 05:49:30;;;;;;;17.77;12.83;;;;;;;18.50;67.45;98307.44;8386965;28;20224;-64
2021/06/11 05:53:32;;;;;;;21.20;12.93;;;;;;;18.63;66.59;98305.63;8387017;28;20220;-64
2021/06/11 05:57:34;;;;;;;15.70;13.10;;;;;;;18.65;66.84;98301.09;8386843;28;20216;-64
2021/06/11 06:01:36;;;;;;;14.73;13.30;;;;;;;18.65;66.92;98302.91;8405163;28;20217;-64
2021/06/11 06:05:40;;;;;;;16.67;13.63;;;;;;;18.82;66.67;98304.31;8419294;28;20219;-64
2021/06/11 06:09:47;;;;;;;26.17;15.07;;;;;;;18.69;66.39;98302.53;8395808;28;20410;-64
2021/06/11 06:13:50;;;;;;;15.70;14.27;;;;;;;18.63;67.54;98303.00;8369323;28;20195;-64
2021/06/11 06:17:53;;;;;;;14.17;12.67;;;;;;;18.74;68.24;98307.47;8386036;28;20199;-64
2021/06/11 06:21:57;;;;;;;13.90;12.13;;;;;;;18.96;67.45;98309.38;8385874;28;20211;-64
2021/06/11 06:25:59;;;;;;;12.40;11.30;;;;;;;19.03;67.10;98305.38;8385759;28;20480;-64
2021/06/11 06:30:02;;;;;;;12.77;11.17;;;;;;;19.22;66.34;98307.47;8385582;28;20227;-64
2021/06/11 06:34:04;;;;;;;14.93;13.37;;;;;;;19.13;67.01;98310.78;8385428;28;20379;-63
2021/06/11 06:38:10;;;;;;;14.60;12.63;;;;;;;19.18;67.06;98320.97;8385336;28;20200;-64
2021/06/11 06:42:16;;;;;;;13.57;12.07;;;;;;;19.33;66.95;98322.44;8385272;28;20203;-64
2021/06/11 06:46:22;;;;;;;11.80;10.73;;;;;;;19.44;66.28;98316.38;8384739;28;20206;-64
2021/06/11 06:50:24;;;;;;;13.40;12.10;;;;;;;19.37;66.55;98313.38;8384771;28;20338;-64
2021/06/11 06:54:28;;;;;;;12.50;11.40;;;;;;;19.67;65.75;98319.91;8384814;28;20366;-64
2021/06/11 06:58:31;;;;;;;14.37;13.07;;;;;;;19.63;66.35;98318.44;8384501;28;20200;-64
2021/06/11 07:02:34;;;;;;;16.27;14.83;;;;;;;19.59;65.25;98319.63;8374343;28;20200;-64
2021/06/11 07:06:37;;;;;;;14.93;13.53;;;;;;;19.79;65.52;98320.78;8351023;28;20228;-64
2021/06/11 07:10:40;;;;;;;17.47;13.73;;;;;;;20.02;65.24;98317.22;8350914;28;20247;-65
2021/06/11 07:14:43;;;;;;;13.93;12.17;;;;;;;20.18;64.84;98316.00;8351139;28;20205;-63
2021/06/11 07:18:45;;;;;;;21.43;13.53;;;;;;;20.25;64.72;98310.16;8359546;28;20199;-65
2021/06/11 07:22:47;;;;;;;12.37;10.33;;;;;;;20.72;63.98;98319.69;8383794;28;20207;-65
2021/06/11 07:26:51;;;;;;;13.33;8.57;;;;;;;21.18;62.33;98314.13;8383878;28;20222;-65
2021/06/11 07:30:53;;;;;;;13.50;9.07;;;;;;;21.40;61.53;98318.47;8383830;28;20575;-66
2021/06/11 07:34:56;;;;;;;18.20;12.43;;;;;;;21.42;61.29;98318.34;8382796;28;20204;-64
2021/06/11 07:38:58;;;;;;;14.43;12.60;;;;;;;21.58;60.95;98320.56;8382962;28;20202;-64
2021/06/11 07:43:03;;;;;;;14.20;12.70;;;;;;;21.79;59.89;98313.47;8382977;28;20205;-64
2021/06/11 07:47:06;;;;;;;16.13;13.57;;;;;;;21.89;61.21;98304.78;8383208;28;20198;-64
2021/06/11 07:51:08;;;;;;;15.00;13.37;;;;;;;22.41;58.59;98311.69;8380372;28;20227;-64
2021/06/11 07:55:11;;;;;;;13.97;12.60;;;;;;;22.70;57.67;98308.28;8381930;28;20221;-64
2021/06/11 07:59:15;;;;;;;14.30;12.37;;;;;;;23.00;57.47;98302.06;8382937;28;20226;-65
2021/06/11 08:03:18;;;;;;;13.33;11.40;;;;;;;23.38;57.39;98300.41;8414979;28;20212;-64
2021/06/11 08:07:21;;;;;;;14.00;12.30;;;;;;;23.47;55.92;98297.88;8415545;28;20230;-67
2021/06/11 08:11:23;;;;;;;11.97;10.77;;;;;;;23.85;55.71;98307.56;8415485;28;20238;-69
2021/06/11 08:15:27;;;;;;;17.83;13.17;;;;;;;24.01;55.25;98299.03;8358542;28;20208;-70
2021/06/11 08:19:29;;;;;;;11.93;10.70;;;;;;;24.25;54.26;98298.47;8349188;28;20208;-69
2021/06/11 08:23:32;;;;;;;15.20;11.03;;;;;;;24.40;53.98;98296.19;8349267;28;20208;-68
2021/06/11 08:27:34;;;;;;;13.97;12.53;;;;;;;24.77;53.32;98300.59;8349218;28;20210;-68
2021/06/11 08:31:38;;;;;;;13.63;10.70;;;;;;;24.80;53.61;98297.63;8349057;28;20228;-68
2021/06/11 08:35:40;;;;;;;13.87;12.37;;;;;;;24.67;53.49;98290.06;8348642;28;20204;-69
2021/06/11 08:39:42;;;;;;;16.47;13.13;;;;;;;24.84;53.42;98296.34;8348830;28;20204;-68
2021/06/11 08:43:45;;;;;;;14.17;12.73;;;;;;;24.74;54.37;98290.31;8348655;28;20208;-69
2021/06/11 08:47:50;;;;;;;13.77;12.30;;;;;;;24.58;54.18;98285.69;8348848;28;20503;-69
2021/06/11 08:51:55;;;;;;;13.87;12.40;;;;;;;25.15;52.14;98280.06;8348840;28;20228;-68
2021/06/11 08:55:57;;;;;;;12.57;11.33;;;;;;;25.41;51.92;98274.00;8348402;28;20210;-68
2021/06/11 09:00:00;;;;;;;12.30;11.10;;;;;;;25.22;52.01;98277.66;8358419;28;20199;-66
2021/06/11 09:04:04;;;;;;;12.70;11.43;;;;;;;25.06;51.44;98281.84;8395817;28;20201;-67
2021/06/11 09:08:18;;;;;;;12.20;10.90;;;;;;;25.35;50.85;98284.25;8384827;28;20394;-68
2021/06/11 09:12:31;;;;;;;12.00;10.80;;;;;;;25.44;50.03;98284.31;8387807;28;20223;-67
2021/06/11 09:16:44;;;;;;;9.80;8.80;;;;;;;25.96;49.19;98284.31;8387547;28;20406;-68
2021/06/11 09:20:48;;;;;;;9.97;9.07;;;;;;;26.35;47.29;98278.53;8387516;28;20207;-68
2021/06/11 09:24:50;;;;;;;8.57;7.77;;;;;;;26.65;48.07;98281.63;8387482;28;20513;-68
2021/06/11 09:29:00;;;;;;;9.80;7.97;;;;;;;27.00;49.40;98285.00;8387997;28;20273;-68
2021/06/11 09:33:04;;;;;;;7.27;6.57;;;;;;;27.25;48.13;98284.03;8387055;28;20241;-69
2021/06/11 09:37:10;;;;;;;8.37;5.70;;;;;;;27.38;45.15;98282.69;8387172;28;20200;-68
2021/06/11 09:41:12;;;;;;;7.77;6.27;;;;;;;27.33;44.49;98282.38;8386988;28;20215;-68
2021/06/11 09:45:16;;;;;;;7.30;5.60;;;;;;;27.49;43.27;98282.34;8386778;28;20206;-68
2021/06/11 09:49:19;;;;;;;11.07;5.60;;;;;;;27.59;42.32;98285.66;8386510;28;20284;-68
2021/06/11 09:53:29;;;;;;;8.63;6.40;;;;;;;27.68;43.44;98287.31;8386351;28;20211;-67
2021/06/11 09:57:33;;;;;;;8.17;5.80;;;;;;;27.91;42.77;98283.13;8386380;28;20489;-67
2021/06/11 10:01:36;;;;;;;5.90;5.40;;;;;;;28.10;42.31;98276.56;8403510;28;20212;-66
2021/06/11 10:05:40;;;;;;;5.57;4.70;;;;;;;28.20;38.93;98285.22;8419626;28;20286;-68
2021/06/11 10:09:44;;;;;;;5.70;5.20;;;;;;;28.32;38.55;98281.16;8419189;28;20248;-67
2021/06/11 10:13:46;;;;;;;5.50;5.00;;;;;;;28.51;38.46;98276.41;8419327;28;20366;-68
2021/06/11 10:17:48;;;;;;;5.57;5.07;;;;;;;28.63;37.57;98265.19;8418331;28;20202;-66
2021/06/11 10:21:50;;;;;;;6.67;5.97;;;;;;;28.61;37.89;98274.34;8418559;28;20205;-69
2021/06/11 10:25:55;;;;;;;7.67;6.43;;;;;;;28.69;38.07;98265.47;8419060;28;20201;-69
2021/06/11 10:29:58;;;;;;;5.97;5.37;;;;;;;28.95;37.47;98268.63;8418856;28;20234;-69
2021/06/11 10:34:00;;;;;;;6.50;5.97;;;;;;;28.71;36.54;98268.81;8418652;28;20491;-68
2021/06/11 10:38:03;;;;;;;5.23;4.70;;;;;;;29.02;37.26;98274.91;8418465;28;20212;-68
2021/06/11 10:42:09;;;;;;;6.70;4.90;;;;;;;29.20;35.63;98263.13;8418401;28;20205;-69
2021/06/11 10:46:21;;;;;;;6.17;5.57;;;;;;;28.70;34.43;98254.66;8404825;28;20194;-67
2021/06/11 10:50:32;;;;;;;6.37;5.00;;;;;;;29.23;36.56;98255.59;8382723;28;20231;-67
2021/06/11 10:54:34;;;;;;;6.00;5.33;;;;;;;29.32;36.14;98258.19;8385674;28;20477;-68
2021/06/11 10:58:38;;;;;;;5.40;4.90;;;;;;;29.25;36.62;98255.44;8384965;28;20264;-69
2021/06/11 11:02:48;;;;;;;6.77;5.97;;;;;;;29.19;34.91;98246.31;8411973;28;20213;-68
2021/06/11 11:06:50;;;;;;;4.97;4.53;;;;;;;29.38;36.22;98246.81;8417827;28;20551;-68
2021/06/11 11:10:54;;;;;;;7.67;4.77;;;;;;;29.66;37.76;98244.34;8378052;28;20243;-67
2021/06/11 11:14:59;;;;;;;5.87;4.57;;;;;;;29.82;35.18;98236.19;8353537;28;20197;-67
2021/06/11 11:19:02;;;;;;;5.43;4.77;;;;;;;29.86;35.07;98233.16;8354317;28;20242;-67
2021/06/11 11:23:06;;;;;;;4.90;4.40;;;;;;;29.90;35.67;98231.78;8384359;28;20205;-68
2021/06/11 11:27:09;;;;;;;6.37;4.20;;;;;;;29.56;34.45;98235.78;8383971;28;20225;-68
2021/06/11 11:31:13;;;;;;;5.60;4.10;;;;;;;30.00;34.01;98224.31;8383860;28;20238;-68
2021/06/11 11:35:17;;;;;;;5.10;4.53;;;;;;;30.05;35.13;98223.75;8383463;28;20269;-69
2021/06/11 11:39:19;;;;;;;6.37;4.27;;;;;;;29.90;33.78;98227.25;8383793;28;20226;-69
2021/06/11 11:43:21;;;;;;;8.27;4.80;;;;;;;29.92;35.29;98219.91;8383413;28;20215;-69
2021/06/11 11:47:41;;;;;;;5.37;4.37;;;;;;;30.11;35.02;98209.66;8360906;28;20199;-66
2021/06/11 11:51:44;;;;;;;6.70;3.70;;;;;;;30.10;33.25;98216.84;8382942;28;20558;-66
2021/06/11 11:55:46;;;;;;;5.63;3.80;;;;;;;30.06;32.78;98212.06;8382800;28;20203;-66
2021/06/11 11:59:49;;;;;;;7.63;3.80;;;;;;;30.29;30.84;98207.41;8386383;28;20264;-66
2021/06/11 12:03:52;;;;;;;4.27;3.57;;;;;;;30.30;29.97;98195.69;8415646;28;20391;-66
2021/06/11 12:07:55;;;;;;;3.97;3.10;;;;;;;30.49;30.30;98201.47;8415638;28;20535;-66
2021/06/11 12:11:57;;;;;;;3.20;3.00;;;;;;;30.39;30.00;98194.59;8415832;28;20559;-65
2021/06/11 12:16:02;;;;;;;4.83;3.40;;;;;;;30.37;29.50;98185.94;8390891;28;20207;-65
2021/06/11 12:20:07;;;;;;;4.33;3.67;;;;;;;30.35;30.84;98187.16;8382549;28;20196;-66
2021/06/11 12:24:10;;;;;;;4.20;3.80;;;;;;;30.36;31.90;98184.28;8382381;28;20314;-66
2021/06/11 12:28:12;;;;;;;4.57;3.50;;;;;;;30.31;32.21;98178.66;8382263;28;20206;-65
2021/06/11 12:32:15;;;;;;;8.90;4.17;;;;;;;30.16;31.33;98169.88;8382098;28;20326;-66
2021/06/11 12:36:19;;;;;;;4.03;3.53;;;;;;;30.14;30.06;98162.06;8382125;28;20208;-66
2021/06/11 12:40:21;;;;;;;4.77;3.80;;;;;;;30.21;32.67;98162.09;8381909;28;20207;-65
2021/06/11 12:44:25;;;;;;;4.10;3.67;;;;;;;30.47;33.12;98168.78;8381160;28;20387;-66
2021/06/11 12:48:27;;;;;;;6.63;3.87;;;;;;;30.49;32.13;98166.75;8381934;28;20208;-65
2021/06/11 12:52:31;;;;;;;5.20;3.97;;;;;;;29.97;32.82;98164.13;8381973;28;20233;-66
2021/06/11 12:56:34;;;;;;;4.47;4.07;;;;;;;29.90;34.57;98157.84;8381752;28;20200;-66
2021/06/11 13:00:36;;;;;;;4.90;3.97;;;;;;;30.05;33.39;98157.84;8391720;28;20207;-66
2021/06/11 13:04:39;;;;;;;5.33;3.73;;;;;;;30.15;32.37;98142.31;8415132;28;20206;-66
2021/06/11 13:08:42;;;;;;;7.03;3.90;;;;;;;29.59;33.40;98144.72;8414343;28;20445;-67
2021/06/11 13:12:45;;;;;;;9.57;4.07;;;;;;;28.98;34.60;98150.19;8414867;28;20230;-66
2021/06/11 13:16:47;;;;;;;5.23;4.07;;;;;;;28.68;36.12;98146.63;8413991;28;20203;-66
2021/06/11 13:20:49;;;;;;;9.10;4.10;;;;;;;29.05;35.87;98141.28;8412860;28;20420;-63
2021/06/11 13:24:53;;;;;;;5.70;4.50;;;;;;;28.53;36.58;98143.91;8384583;28;20205;-63
2021/06/11 13:28:56;;;;;;;6.80;4.60;;;;;;;28.65;35.96;98153.97;8372241;28;20385;-63
2021/06/11 13:32:58;;;;;;;6.00;4.33;;;;;;;28.44;36.30;98143.09;8380769;28;20231;-63
2021/06/11 13:37:01;;;;;;;4.67;4.27;;;;;;;27.82;37.40;98144.75;8365474;28;20202;-68
2021/06/11 13:41:05;;;;;;;5.03;3.80;;;;;;;28.04;38.81;98134.34;8349400;28;20204;-66
2021/06/11 13:45:09;;;;;;;4.83;4.23;;;;;;;27.86;38.95;98138.09;8377742;28;20297;-68
2021/06/11 13:49:11;;;;;;;7.77;4.40;;;;;;;28.73;36.65;98141.56;8380953;28;20206;-68
2021/06/11 13:53:14;;;;;;;4.57;4.03;;;;;;;28.71;36.51;98141.75;8356095;28;20227;-68
2021/06/11 13:57:17;;;;;;;4.47;4.07;;;;;;;29.16;35.94;98128.53;8353788;28;20524;-67
2021/06/11 14:01:20;;;;;;;4.90;3.87;;;;;;;29.19;34.72;98120.16;8369866;28;20209;-68
2021/06/11 14:05:22;;;;;;;5.07;3.87;;;;;;;29.32;35.05;98119.50;8387482;28;20222;-68
2021/06/11 14:09:25;;;;;;;4.93;3.60;;;;;;;29.44;34.25;98112.72;8367471;28;20302;-67
2021/06/11 14:13:28;;;;;;;6.67;3.80;;;;;;;29.55;34.75;98112.25;8353292;28;20231;-66
2021/06/11 14:17:31;;;;;;;4.03;3.63;;;;;;;29.57;34.75;98099.53;8353615;28;20506;-68
2021/06/11 14:21:33;;;;;;;5.27;3.70;;;;;;;29.55;35.20;98106.06;8353276;28;20213;-67
2021/06/11 14:25:39;;;;;;;3.47;3.17;;;;;;;29.64;33.83;98096.94;8352864;28;20241;-67
2021/06/11 14:29:42;;;;;;;3.70;3.40;;;;;;;29.61;33.48;98100.00;8353465;28;20485;-67
2021/06/11 14:33:45;;;;;;;3.93;3.60;;;;;;;29.52;32.16;98101.94;8352915;28;20230;-66
2021/06/11 14:37:47;;;;;;;4.30;3.50;;;;;;;29.81;34.61;98101.06;8417359;28;20202;-66
2021/06/11 14:41:49;;;;;;;3.60;3.30;;;;;;;29.69;33.43;98086.53;8419191;28;20226;-66
2021/06/11 14:45:53;;;;;;;3.27;2.97;;;;;;;29.66;32.13;98091.44;8407415;28;20218;-67
2021/06/11 14:49:55;;;;;;;3.13;2.90;;;;;;;29.62;31.23;98090.97;8366487;28;20233;-67
2021/06/11 14:53:59;;;;;;;5.30;2.90;;;;;;;29.45;30.16;98079.69;8352517;28;20550;-67
2021/06/11 14:58:03;;;;;;;3.13;2.83;;;;;;;29.49;30.28;98086.28;8382815;28;20199;-67
2021/06/11 15:02:06;;;;;;;4.47;2.80;;;;;;;29.46;31.35;98084.00;8385084;28;20221;-66
2021/06/11 15:06:10;;;;;;;4.20;2.67;;;;;;;29.37;31.58;98085.94;8381382;28;20417;-67
2021/06/11 15:10:12;;;;;;;4.33;2.63;;;;;;;29.37;30.99;98082.44;8384462;28;20228;-67
2021/06/11 15:14:15;;;;;;;3.23;2.50;;;;;;;29.29;30.67;98080.72;8379450;28;20259;-67
2021/06/11 15:18:20;;;;;;;3.27;2.50;;;;;;;29.16;29.54;98075.19;8369924;28;20199;-67
2021/06/11 15:22:22;;;;;;;3.83;2.60;;;;;;;29.22;31.68;98077.94;8351274;28;20298;-66
2021/06/11 15:26:25;;;;;;;2.70;2.50;;;;;;;29.26;32.33;98074.91;8377615;28;20199;-66
2021/06/11 15:30:27;;;;;;;2.70;2.43;;;;;;;29.17;31.85;98077.69;8365931;28;20207;-66
2021/06/11 15:34:35;;;;;;;3.90;2.67;;;;;;;28.92;31.12;98079.78;8356479;28;20239;-67
2021/06/11 15:38:38;;;;;;;5.87;3.00;;;;;;;28.61;30.45;98078.03;8366179;28;20195;-67
2021/06/11 15:42:40;;;;;;;3.20;2.83;;;;;;;28.09;32.10;98081.44;8381477;28;20202;-67
2021/06/11 15:46:42;;;;;;;4.03;2.80;;;;;;;27.89;33.76;98081.03;8374034;28;20496;-66
2021/06/11 15:50:46;;;;;;;4.47;3.30;;;;;;;28.23;33.73;98077.16;8375618;28;20197;-66
2021/06/11 15:54:48;;;;;;;4.30;3.30;;;;;;;28.30;33.61;98075.44;8369227;28;20214;-67
2021/06/11 15:58:51;;;;;;;5.57;3.93;;;;;;;28.13;33.85;98069.41;8380380;28;20203;-66
2021/06/11 16:02:53;;;;;;;4.50;4.10;;;;;;;27.91;35.68;98068.41;8359440;28;20402;-66
2021/06/11 16:07:00;;;;;;;5.50;3.73;;;;;;;28.04;34.22;98073.13;8366302;28;20217;-67
2021/06/11 16:11:02;;;;;;;4.53;3.50;;;;;;;28.12;34.11;98077.56;8359393;28;20238;-67
2021/06/11 16:15:06;;;;;;;4.63;3.90;;;;;;;28.01;35.64;98070.84;8367583;28;20207;-67
2021/06/11 16:19:08;;;;;;;4.03;3.73;;;;;;;28.10;36.27;98071.59;8379073;28;20195;-67
2021/06/11 16:23:12;;;;;;;5.03;3.53;;;;;;;28.11;34.94;98078.59;8354203;28;20210;-67
2021/06/11 16:27:15;;;;;;;3.77;3.10;;;;;;;27.80;34.45;98072.28;8378384;28;20206;-68
2021/06/11 16:31:17;;;;;;;3.43;3.13;;;;;;;27.64;35.17;98072.34;8373125;28;20220;-67
2021/06/11 16:35:19;;;;;;;3.50;3.17;;;;;;;27.45;35.73;98060.31;8369822;28;20199;-68
2021/06/11 16:39:24;;;;;;;4.27;3.10;;;;;;;27.20;35.72;98070.19;8364918;28;20198;-67
2021/06/11 16:43:26;;;;;;;5.63;3.23;;;;;;;26.98;36.35;98074.38;8366508;28;20227;-63
2021/06/11 16:47:28;;;;;;;3.17;2.97;;;;;;;26.87;36.51;98073.75;8363868;28;20203;-64
2021/06/11 16:51:31;;;;;;;4.30;3.50;;;;;;;26.84;37.15;98071.44;8381901;28;20232;-63
2021/06/11 16:55:34;;;;;;;4.60;3.03;;;;;;;26.76;38.56;98066.13;8370637;28;20205;-64
2021/06/11 16:59:37;;;;;;;3.40;2.97;;;;;;;26.67;40.07;98064.50;8359861;28;20202;-64
2021/06/11 17:03:39;;;;;;;3.53;3.23;;;;;;;26.57;40.31;98059.31;8355952;28;20484;-64
2021/06/11 17:07:41;;;;;;;4.87;3.50;;;;;;;26.49;40.57;98062.00;8364254;28;20225;-64
2021/06/11 17:11:45;;;;;;;4.37;3.97;;;;;;;26.38;41.81;98055.19;8380709;28;20227;-64
2021/06/11 17:15:47;;;;;;;5.80;3.50;;;;;;;26.34;42.23;98061.81;8369279;28;20255;-63
2021/06/11 17:19:50;;;;;;;3.90;3.40;;;;;;;26.35;42.46;98058.19;8377473;28;20240;-63
2021/06/11 17:23:52;;;;;;;5.30;3.37;;;;;;;26.29;42.61;98072.09;8364073;28;20201;-63
2021/06/11 17:27:57;;;;;;;4.77;4.03;;;;;;;26.32;42.96;98066.47;8365357;28;20194;-63
2021/06/11 17:32:01;;;;;;;4.80;4.30;;;;;;;26.23;43.47;98067.47;8368322;28;20528;-63
2021/06/11 17:36:05;;;;;;;4.50;4.10;;;;;;;26.18;44.04;98081.25;8365188;28;20196;-63
2021/06/11 17:40:08;;;;;;;4.07;3.77;;;;;;;26.14;44.11;98078.09;8364590;28;20210;-64
2021/06/11 17:44:16;;;;;;;5.00;4.43;;;;;;;26.13;43.31;98091.50;8369347;28;20560;-64
2021/06/11 17:48:20;;;;;;;4.47;3.97;;;;;;;26.14;43.43;98085.19;8370835;28;20194;-63
2021/06/11 17:52:22;;;;;;;4.53;4.13;;;;;;;26.10;43.16;98075.91;8369670;28;20228;-64
2021/06/11 17:56:24;;;;;;;7.43;5.20;;;;;;;26.03;44.48;98083.69;8370002;28;20197;-64
2021/06/11 18:00:28;;;;;;;15.57;14.07;;;;;;;26.07;45.31;98084.22;8365844;28;20211;-64
2021/06/11 18:04:33;;;;;;;23.40;21.20;;;;;;;26.07;47.71;98089.50;8369639;28;20196;-64
2021/06/11 18:08:37;;;;;;;18.33;16.83;;;;;;;26.06;46.98;98080.69;8369335;28;20287;-64
2021/06/11 18:12:42;;;;;;;15.07;13.87;;;;;;;26.08;47.64;98083.19;8379294;28;20402;-65
2021/06/11 18:16:45;;;;;;;14.67;13.43;;;;;;;26.06;47.70;98087.84;8379071;28;20278;-64
2021/06/11 18:20:48;;;;;;;9.80;8.93;;;;;;;25.97;47.09;98086.16;8380888;28;20273;-64
2021/06/11 18:24:50;;;;;;;6.90;6.30;;;;;;;25.92;46.04;98078.72;8385988;28;20211;-64
2021/06/11 18:28:53;;;;;;;7.97;6.87;;;;;;;25.86;46.09;98085.47;8382898;28;20207;-64
2021/06/11 18:32:56;;;;;;;7.47;6.67;;;;;;;25.80;45.76;98086.13;8373384;28;20417;-64
2021/06/11 18:36:59;;;;;;;5.70;5.20;;;;;;;25.70;45.81;98086.25;8378377;28;20210;-64
2021/06/11 18:41:02;;;;;;;5.63;5.00;;;;;;;25.66;46.33;98084.06;8384714;28;20200;-64
2021/06/11 18:45:06;;;;;;;5.30;4.80;;;;;;;25.60;46.58;98084.72;8385407;28;20221;-64
2021/06/11 18:49:10;;;;;;;5.80;5.20;;;;;;;25.56;47.11;98081.56;8385289;28;20360;-65
2021/06/11 18:53:15;;;;;;;8.27;4.97;;;;;;;25.39;48.39;98075.34;8375509;28;20226;-64
2021/06/11 18:57:18;;;;;;;7.00;4.80;;;;;;;25.34;48.59;98086.44;8369795;28;20198;-68